sensor_id;sensor_type;location;lat;lon;timestamp;pressure;altitude;pressure_sealevel;temperature;humidity
41106;BME280;74159;52.530;13.188;2024-03-08T00:00:13;102036.31;;;3.36;60.34
41106;BME280;74159;52.530;13.188;2024-03-08T00:02:39;102036.38;;;3.21;59.95
41106;BME280;74159;52.530;13.188;2024-03-08T00:05:06;102035.63;;;3.55;59.57
41106;BME280;74159;52.530;13.188;2024-03-08T00:07:38;102034.34;;;3.30;60.87
41106;BME280;74159;52.530;13.188;2024-03-08T00:10:04;102031.56;;;3.23;61.46
41106;BME280;74159;52.530;13.188;2024-03-08T00:12:29;102030.25;;;3.19;61.46
41106;BME280;74159;52.530;13.188;2024-03-08T00:14:55;102027.06;;;3.16;61.82
41106;BME280;74159;52.530;13.188;2024-03-08T00:17:21;102028.69;;;2.89;62.12
41106;BME280;74159;52.530;13.188;2024-03-08T00:19:53;102018.66;;;2.60;63.67
41106;BME280;74159;52.530;13.188;2024-03-08T00:22:18;102031.19;;;2.69;62.95
41106;BME280;74159;52.530;13.188;2024-03-08T00:24:44;102030.31;;;2.68;63.31
41106;BME280;74159;52.530;13.188;2024-03-08T00:27:09;102024.28;;;2.73;63.30
41106;BME280;74159;52.530;13.188;2024-03-08T00:29:35;102035.63;;;2.55;63.23
41106;BME280;74159;52.530;13.188;2024-03-08T00:32:00;102037.13;;;2.58;63.94
41106;BME280;74159;52.530;13.188;2024-03-08T00:34:26;102037.28;;;2.86;63.41
41106;BME280;74159;52.530;13.188;2024-03-08T00:36:52;102025.81;;;2.61;63.86
41106;BME280;74159;52.530;13.188;2024-03-08T00:39:17;102026.28;;;2.64;64.31
41106;BME280;74159;52.530;13.188;2024-03-08T00:41:45;102025.78;;;2.76;64.08
41106;BME280;74159;52.530;13.188;2024-03-08T00:44:10;102029.31;;;2.69;63.95
41106;BME280;74159;52.530;13.188;2024-03-08T00:46:35;102021.22;;;2.61;65.02
41106;BME280;74159;52.530;13.188;2024-03-08T00:49:01;102019.97;;;2.64;65.33
41106;BME280;74159;52.530;13.188;2024-03-08T00:51:26;102015.56;;;2.48;65.88
41106;BME280;74159;52.530;13.188;2024-03-08T00:53:52;102025.97;;;2.38;66.61
41106;BME280;74159;52.530;13.188;2024-03-08T00:56:17;102025.66;;;2.48;65.94
41106;BME280;74159;52.530;13.188;2024-03-08T00:58:42;102025.47;;;1.75;67.89
41106;BME280;74159;52.530;13.188;2024-03-08T01:01:08;102019.38;;;2.18;66.58
41106;BME280;74159;52.530;13.188;2024-03-08T01:03:35;102016.94;;;1.93;66.64
41106;BME280;74159;52.530;13.188;2024-03-08T01:06:01;102017.31;;;1.90;66.84
41106;BME280;74159;52.530;13.188;2024-03-08T01:08:27;102007.78;;;2.16;66.21
41106;BME280;74159;52.530;13.188;2024-03-08T01:10:53;102009.78;;;2.22;66.22
41106;BME280;74159;52.530;13.188;2024-03-08T01:13:18;102002.91;;;1.81;67.00
41106;BME280;74159;52.530;13.188;2024-03-08T01:15:44;102003.75;;;1.82;66.58
41106;BME280;74159;52.530;13.188;2024-03-08T01:18:10;102005.19;;;1.93;66.05
41106;BME280;74159;52.530;13.188;2024-03-08T01:20:35;102006.50;;;2.11;65.87
41106;BME280;74159;52.530;13.188;2024-03-08T01:23:01;101993.97;;;2.17;65.34
41106;BME280;74159;52.530;13.188;2024-03-08T01:25:26;101985.31;;;2.14;65.86
41106;BME280;74159;52.530;13.188;2024-03-08T01:27:52;101993.22;;;2.08;65.30
41106;BME280;74159;52.530;13.188;2024-03-08T01:30:19;101985.44;;;2.05;65.64
41106;BME280;74159;52.530;13.188;2024-03-08T01:32:44;101987.31;;;2.05;65.20
41106;BME280;74159;52.530;13.188;2024-03-08T01:35:10;101988.16;;;2.05;65.35
41106;BME280;74159;52.530;13.188;2024-03-08T01:37:36;101982.13;;;1.95;65.82
41106;BME280;74159;52.530;13.188;2024-03-08T01:40:02;101975.81;;;2.09;65.07
41106;BME280;74159;52.530;13.188;2024-03-08T01:42:28;101979.31;;;2.03;65.97
41106;BME280;74159;52.530;13.188;2024-03-08T01:44:54;101971.59;;;2.22;65.21
41106;BME280;74159;52.530;13.188;2024-03-08T01:47:20;101965.88;;;2.02;65.53
41106;BME280;74159;52.530;13.188;2024-03-08T01:49:49;101966.03;;;2.00;65.13
41106;BME280;74159;52.530;13.188;2024-03-08T01:52:15;101957.84;;;2.00;65.24
41106;BME280;74159;52.530;13.188;2024-03-08T01:54:40;101956.97;;;2.15;65.31
41106;BME280;74159;52.530;13.188;2024-03-08T01:57:06;101958.59;;;2.24;65.45
41106;BME280;74159;52.530;13.188;2024-03-08T01:59:32;101965.00;;;2.01;65.70
41106;BME280;74159;52.530;13.188;2024-03-08T02:02:01;101960.09;;;2.11;66.32
41106;BME280;74159;52.530;13.188;2024-03-08T02:04:27;101950.03;;;1.97;65.56
41106;BME280;74159;52.530;13.188;2024-03-08T02:06:53;101952.69;;;1.76;66.24
41106;BME280;74159;52.530;13.188;2024-03-08T02:09:18;101943.94;;;1.95;66.56
41106;BME280;74159;52.530;13.188;2024-03-08T02:11:44;101938.78;;;1.71;66.66
41106;BME280;74159;52.530;13.188;2024-03-08T02:14:10;101951.00;;;1.75;66.24
41106;BME280;74159;52.530;13.188;2024-03-08T02:16:36;101943.75;;;1.53;66.72
41106;BME280;74159;52.530;13.188;2024-03-08T02:19:03;101950.41;;;1.50;67.40
41106;BME280;74159;52.530;13.188;2024-03-08T02:21:28;101942.25;;;1.65;66.34
41106;BME280;74159;52.530;13.188;2024-03-08T02:23:55;101950.13;;;1.45;66.94
41106;BME280;74159;52.530;13.188;2024-03-08T02:26:20;101935.38;;;1.54;66.84
41106;BME280;74159;52.530;13.188;2024-03-08T02:28:46;101940.16;;;1.37;67.36
41106;BME280;74159;52.530;13.188;2024-03-08T02:31:12;101945.78;;;1.50;66.90
41106;BME280;74159;52.530;13.188;2024-03-08T02:33:37;101937.97;;;1.18;68.07
41106;BME280;74159;52.530;13.188;2024-03-08T02:36:02;101941.69;;;1.02;68.67
41106;BME280;74159;52.530;13.188;2024-03-08T02:38:28;101940.56;;;1.11;69.10
41106;BME280;74159;52.530;13.188;2024-03-08T02:40:54;101937.16;;;1.47;68.13
41106;BME280;74159;52.530;13.188;2024-03-08T02:43:21;101927.72;;;1.20;67.86
41106;BME280;74159;52.530;13.188;2024-03-08T02:45:50;101931.25;;;1.06;68.68
41106;BME280;74159;52.530;13.188;2024-03-08T02:48:15;101933.19;;;1.49;67.90
41106;BME280;74159;52.530;13.188;2024-03-08T02:50:43;101922.72;;;1.09;68.66
41106;BME280;74159;52.530;13.188;2024-03-08T02:53:10;101923.81;;;1.37;67.96
41106;BME280;74159;52.530;13.188;2024-03-08T02:55:39;101921.06;;;1.00;68.28
41106;BME280;74159;52.530;13.188;2024-03-08T02:58:06;101919.75;;;1.18;68.57
41106;BME280;74159;52.530;13.188;2024-03-08T03:00:35;101923.47;;;1.17;68.63
41106;BME280;74159;52.530;13.188;2024-03-08T03:03:00;101920.91;;;1.39;67.53
41106;BME280;74159;52.530;13.188;2024-03-08T03:05:28;101917.75;;;1.27;67.89
41106;BME280;74159;52.530;13.188;2024-03-08T03:07:55;101917.97;;;1.40;67.89
41106;BME280;74159;52.530;13.188;2024-03-08T03:10:20;101916.16;;;1.33;67.90
41106;BME280;74159;52.530;13.188;2024-03-08T03:12:47;101919.66;;;1.41;67.81
41106;BME280;74159;52.530;13.188;2024-03-08T03:15:14;101923.06;;;1.43;67.85
41106;BME280;74159;52.530;13.188;2024-03-08T03:17:39;101913.56;;;1.54;67.37
41106;BME280;74159;52.530;13.188;2024-03-08T03:20:08;101918.41;;;1.29;68.13
41106;BME280;74159;52.530;13.188;2024-03-08T03:22:39;101912.50;;;1.26;68.37
41106;BME280;74159;52.530;13.188;2024-03-08T03:25:07;101913.06;;;1.21;67.85
41106;BME280;74159;52.530;13.188;2024-03-08T03:27:32;101913.06;;;1.21;68.55
41106;BME280;74159;52.530;13.188;2024-03-08T03:29:58;101914.16;;;1.12;68.29
41106;BME280;74159;52.530;13.188;2024-03-08T03:32:23;101919.28;;;1.44;67.71
41106;BME280;74159;52.530;13.188;2024-03-08T03:34:49;101906.28;;;1.17;68.48
41106;BME280;74159;52.530;13.188;2024-03-08T03:37:21;101916.28;;;1.39;68.40
41106;BME280;74159;52.530;13.188;2024-03-08T03:39:46;101906.56;;;1.07;68.08
41106;BME280;74159;52.530;13.188;2024-03-08T03:42:18;101912.91;;;1.37;67.86
41106;BME280;74159;52.530;13.188;2024-03-08T03:44:47;101913.94;;;0.99;68.73
41106;BME280;74159;52.530;13.188;2024-03-08T03:47:13;101903.34;;;1.04;68.69
41106;BME280;74159;52.530;13.188;2024-03-08T03:49:40;101911.13;;;0.92;68.90
41106;BME280;74159;52.530;13.188;2024-03-08T03:52:05;101915.91;;;0.90;69.79
41106;BME280;74159;52.530;13.188;2024-03-08T03:54:31;101906.28;;;1.17;69.04
41106;BME280;74159;52.530;13.188;2024-03-08T03:56:58;101909.13;;;0.86;69.52
41106;BME280;74159;52.530;13.188;2024-03-08T03:59:23;101914.88;;;0.91;69.63
41106;BME280;74159;52.530;13.188;2024-03-08T04:01:49;101907.91;;;0.88;69.96
41106;BME280;74159;52.530;13.188;2024-03-08T04:04:15;101903.94;;;0.76;70.12
41106;BME280;74159;52.530;13.188;2024-03-08T04:06:40;101911.19;;;0.61;70.67
41106;BME280;74159;52.530;13.188;2024-03-08T04:09:05;101903.59;;;0.25;71.43
41106;BME280;74159;52.530;13.188;2024-03-08T04:11:31;101904.00;;;0.68;71.16
41106;BME280;74159;52.530;13.188;2024-03-08T04:13:56;101903.16;;;0.68;70.80
41106;BME280;74159;52.530;13.188;2024-03-08T04:16:21;101894.72;;;0.77;70.79
41106;BME280;74159;52.530;13.188;2024-03-08T04:18:47;101902.28;;;0.67;70.29
41106;BME280;74159;52.530;13.188;2024-03-08T04:21:13;101894.72;;;0.77;69.75
41106;BME280;74159;52.530;13.188;2024-03-08T04:23:38;101904.63;;;0.93;69.63
41106;BME280;74159;52.530;13.188;2024-03-08T04:26:03;101906.72;;;0.68;70.06
41106;BME280;74159;52.530;13.188;2024-03-08T04:28:34;101907.19;;;0.72;70.35
41106;BME280;74159;52.530;13.188;2024-03-08T04:31:00;101912.03;;;0.39;71.60
41106;BME280;74159;52.530;13.188;2024-03-08T04:33:28;101904.66;;;0.70;70.42
41106;BME280;74159;52.530;13.188;2024-03-08T04:35:53;101902.59;;;0.72;70.48
41106;BME280;74159;52.530;13.188;2024-03-08T04:38:19;101899.22;;;0.70;70.40
41106;BME280;74159;52.530;13.188;2024-03-08T04:40:44;101898.25;;;0.63;70.60
41106;BME280;74159;52.530;13.188;2024-03-08T04:43:10;101895.84;;;0.68;71.00
41106;BME280;74159;52.530;13.188;2024-03-08T04:45:36;101905.16;;;0.51;71.35
41106;BME280;74159;52.530;13.188;2024-03-08T04:48:01;101891.06;;;0.70;70.79
41106;BME280;74159;52.530;13.188;2024-03-08T04:50:27;101893.97;;;0.83;70.39
41106;BME280;74159;52.530;13.188;2024-03-08T04:52:54;101898.72;;;0.67;70.70
41106;BME280;74159;52.530;13.188;2024-03-08T04:55:20;101889.75;;;0.81;69.83
41106;BME280;74159;52.530;13.188;2024-03-08T04:57:46;101892.94;;;0.70;69.71
41106;BME280;74159;52.530;13.188;2024-03-08T05:00:12;101898.34;;;0.47;71.45
41106;BME280;74159;52.530;13.188;2024-03-08T05:02:38;101892.44;;;0.66;70.45
41106;BME280;74159;52.530;13.188;2024-03-08T05:05:07;101893.38;;;0.27;71.53
41106;BME280;74159;52.530;13.188;2024-03-08T05:07:40;101894.00;;;0.38;71.97
41106;BME280;74159;52.530;13.188;2024-03-08T05:10:06;101898.75;;;0.13;72.44
41106;BME280;74159;52.530;13.188;2024-03-08T05:12:33;101894.91;;;0.30;72.26
41106;BME280;74159;52.530;13.188;2024-03-08T05:14:58;101898.00;;;0.50;71.47
41106;BME280;74159;52.530;13.188;2024-03-08T05:17:23;101899.72;;;0.51;71.13
41106;BME280;74159;52.530;13.188;2024-03-08T05:19:49;101891.09;;;0.39;71.73
41106;BME280;74159;52.530;13.188;2024-03-08T05:22:14;101893.47;;;0.11;72.16
41106;BME280;74159;52.530;13.188;2024-03-08T05:24:40;101890.00;;;0.48;71.57
41106;BME280;74159;52.530;13.188;2024-03-08T05:27:05;101894.28;;;0.51;71.07
41106;BME280;74159;52.530;13.188;2024-03-08T05:29:31;101890.56;;;0.44;71.62
41106;BME280;74159;52.530;13.188;2024-03-08T05:31:56;101879.41;;;0.30;72.10
41106;BME280;74159;52.530;13.188;2024-03-08T05:34:23;101884.09;;;0.45;71.21
41106;BME280;74159;52.530;13.188;2024-03-08T05:36:49;101880.69;;;0.43;71.24
41106;BME280;74159;52.530;13.188;2024-03-08T05:39:19;101883.13;;;0.38;71.64
41106;BME280;74159;52.530;13.188;2024-03-08T05:41:45;101884.63;;;0.17;72.48
41106;BME280;74159;52.530;13.188;2024-03-08T05:44:11;101886.97;;;0.20;71.88
41106;BME280;74159;52.530;13.188;2024-03-08T05:46:37;101876.94;;;0.44;71.81
41106;BME280;74159;52.530;13.188;2024-03-08T05:49:06;101880.22;;;0.62;71.24
41106;BME280;74159;52.530;13.188;2024-03-08T05:51:32;101874.63;;;0.78;70.77
41106;BME280;74159;52.530;13.188;2024-03-08T05:54:00;101872.34;;;0.44;71.21
41106;BME280;74159;52.530;13.188;2024-03-08T05:56:26;101876.00;;;0.37;71.60
41106;BME280;74159;52.530;13.188;2024-03-08T05:58:51;101879.97;;;0.49;71.55
41106;BME280;74159;52.530;13.188;2024-03-08T06:01:16;101893.22;;;0.29;71.59
41106;BME280;74159;52.530;13.188;2024-03-08T06:03:42;101896.19;;;0.65;70.89
41106;BME280;74159;52.530;13.188;2024-03-08T06:06:13;101888.09;;;0.57;71.29
41106;BME280;74159;52.530;13.188;2024-03-08T06:08:39;101889.75;;;0.81;70.84
41106;BME280;74159;52.530;13.188;2024-03-08T06:11:05;101887.06;;;0.96;70.00
41106;BME280;74159;52.530;13.188;2024-03-08T06:13:34;101892.66;;;0.79;70.84
41106;BME280;74159;52.530;13.188;2024-03-08T06:16:00;101887.41;;;0.78;70.84
41106;BME280;74159;52.530;13.188;2024-03-08T06:18:30;101880.34;;;0.69;70.89
41106;BME280;74159;52.530;13.188;2024-03-08T06:20:55;101890.25;;;0.84;70.67
41106;BME280;74159;52.530;13.188;2024-03-08T06:23:20;101886.63;;;0.69;71.22
41106;BME280;74159;52.530;13.188;2024-03-08T06:25:46;101886.31;;;0.64;71.39
41106;BME280;74159;52.530;13.188;2024-03-08T06:28:12;101891.56;;;0.51;71.81
41106;BME280;74159;52.530;13.188;2024-03-08T06:30:39;101894.19;;;0.59;72.14
41106;BME280;74159;52.530;13.188;2024-03-08T06:33:04;101887.25;;;0.94;70.79
41106;BME280;74159;52.530;13.188;2024-03-08T06:35:30;101887.81;;;0.89;71.04
41106;BME280;74159;52.530;13.188;2024-03-08T06:37:57;101889.22;;;0.85;71.26
41106;BME280;74159;52.530;13.188;2024-03-08T06:40:23;101883.53;;;1.10;70.20
41106;BME280;74159;52.530;13.188;2024-03-08T06:42:48;101891.97;;;1.00;71.08
41106;BME280;74159;52.530;13.188;2024-03-08T06:45:13;101878.47;;;1.07;70.89
41106;BME280;74159;52.530;13.188;2024-03-08T06:47:44;101894.66;;;1.23;70.98
41106;BME280;74159;52.530;13.188;2024-03-08T06:50:11;101879.94;;;0.95;71.41
41106;BME280;74159;52.530;13.188;2024-03-08T06:52:36;101888.22;;;1.16;71.86
41106;BME280;74159;52.530;13.188;2024-03-08T06:55:02;101883.06;;;1.06;71.43
41106;BME280;74159;52.530;13.188;2024-03-08T06:57:30;101879.31;;;1.07;71.42
41106;BME280;74159;52.530;13.188;2024-03-08T06:59:56;101878.19;;;1.16;71.06
41106;BME280;74159;52.530;13.188;2024-03-08T07:02:22;101884.81;;;1.37;71.10
41106;BME280;74159;52.530;13.188;2024-03-08T07:04:50;101883.97;;;1.36;70.44
41106;BME280;74159;52.530;13.188;2024-03-08T07:07:15;101887.03;;;1.33;69.76
41106;BME280;74159;52.530;13.188;2024-03-08T07:09:41;101880.75;;;1.47;69.51
41106;BME280;74159;52.530;13.188;2024-03-08T07:12:09;101889.56;;;1.79;69.15
41106;BME280;74159;52.530;13.188;2024-03-08T07:14:36;101881.88;;;1.68;69.33
41106;BME280;74159;52.530;13.188;2024-03-08T07:17:06;101874.19;;;3.14;68.48
41106;BME280;74159;52.530;13.188;2024-03-08T07:19:33;101868.72;;;2.65;66.17
41106;BME280;74159;52.530;13.188;2024-03-08T07:21:58;101862.22;;;2.45;67.58
41106;BME280;74159;52.530;13.188;2024-03-08T07:24:24;101873.72;;;2.61;67.97
41106;BME280;74159;52.530;13.188;2024-03-08T07:27:18;101862.41;;;2.64;67.81
41106;BME280;74159;52.530;13.188;2024-03-08T07:29:44;101863.00;;;2.38;67.20
41106;BME280;74159;52.530;13.188;2024-03-08T07:32:10;101863.25;;;2.65;66.95
41106;BME280;74159;52.530;13.188;2024-03-08T07:34:48;101866.13;;;2.57;67.25
41106;BME280;74159;52.530;13.188;2024-03-08T07:37:15;101857.50;;;2.53;68.22
41106;BME280;74159;52.530;13.188;2024-03-08T07:39:41;101862.50;;;2.71;66.60
41106;BME280;74159;52.530;13.188;2024-03-08T07:42:06;101860.41;;;2.73;66.83
41106;BME280;74159;52.530;13.188;2024-03-08T07:44:32;101854.59;;;2.83;65.37
41106;BME280;74159;52.530;13.188;2024-03-08T07:46:58;101853.41;;;2.92;65.41
41106;BME280;74159;52.530;13.188;2024-03-08T07:49:24;101840.41;;;2.94;65.84
41106;BME280;74159;52.530;13.188;2024-03-08T07:51:49;101849.63;;;2.93;65.35
41106;BME280;74159;52.530;13.188;2024-03-08T07:54:15;101846.94;;;3.27;65.37
41106;BME280;74159;52.530;13.188;2024-03-08T07:56:40;101844.72;;;3.38;64.83
41106;BME280;74159;52.530;13.188;2024-03-08T07:59:07;101838.72;;;3.62;63.29
41106;BME280;74159;52.530;13.188;2024-03-08T08:01:32;101834.88;;;3.91;62.49
41106;BME280;74159;52.530;13.188;2024-03-08T08:04:01;101831.81;;;4.27;62.38
41106;BME280;74159;52.530;13.188;2024-03-08T08:06:27;101844.97;;;3.97;60.87
41106;BME280;74159;52.530;13.188;2024-03-08T08:08:53;101833.03;;;4.11;60.78
41106;BME280;74159;52.530;13.188;2024-03-08T08:11:19;101831.78;;;4.07;58.77
41106;BME280;74159;52.530;13.188;2024-03-08T08:13:45;101825.88;;;4.04;58.63
41106;BME280;74159;52.530;13.188;2024-03-08T08:16:11;101831.44;;;4.37;58.66
41106;BME280;74159;52.530;13.188;2024-03-08T08:18:37;101821.75;;;4.61;58.18
41106;BME280;74159;52.530;13.188;2024-03-08T08:21:04;101819.66;;;4.76;57.93
41106;BME280;74159;52.530;13.188;2024-03-08T08:23:31;101820.50;;;4.90;57.18
41106;BME280;74159;52.530;13.188;2024-03-08T08:25:57;101822.19;;;4.77;56.82
41106;BME280;74159;52.530;13.188;2024-03-08T08:28:22;101810.81;;;4.87;56.41
41106;BME280;74159;52.530;13.188;2024-03-08T08:30:48;101810.38;;;4.77;57.27
41106;BME280;74159;52.530;13.188;2024-03-08T08:33:16;101800.69;;;4.74;55.79
41106;BME280;74159;52.530;13.188;2024-03-08T08:35:41;101811.41;;;5.02;55.94
41106;BME280;74159;52.530;13.188;2024-03-08T08:38:07;101806.78;;;4.96;54.89
41106;BME280;74159;52.530;13.188;2024-03-08T08:40:34;101798.53;;;5.23;54.13
41106;BME280;74159;52.530;13.188;2024-03-08T08:43:01;101812.00;;;5.18;53.46
41106;BME280;74159;52.530;13.188;2024-03-08T08:45:32;101802.09;;;5.30;53.59
41106;BME280;74159;52.530;13.188;2024-03-08T08:47:58;101801.03;;;5.18;53.16
41106;BME280;74159;52.530;13.188;2024-03-08T08:50:25;101798.50;;;5.29;51.96
41106;BME280;74159;52.530;13.188;2024-03-08T08:52:52;101794.63;;;5.50;51.77
41106;BME280;74159;52.530;13.188;2024-03-08T08:55:18;101791.22;;;5.61;51.76
41106;BME280;74159;52.530;13.188;2024-03-08T08:57:46;101792.06;;;5.62;51.32
41106;BME280;74159;52.530;13.188;2024-03-08T09:00:13;101784.13;;;5.34;50.63
41106;BME280;74159;52.530;13.188;2024-03-08T09:02:41;101793.34;;;5.53;50.80
41106;BME280;74159;52.530;13.188;2024-03-08T09:05:07;101782.66;;;5.31;50.54
41106;BME280;74159;52.530;13.188;2024-03-08T09:07:33;101783.03;;;5.48;50.33
41106;BME280;74159;52.530;13.188;2024-03-08T09:09:59;101786.28;;;5.19;50.29
41106;BME280;74159;52.530;13.188;2024-03-08T09:12:25;101777.53;;;6.06;50.64
41106;BME280;74159;52.530;13.188;2024-03-08T09:14:50;101767.59;;;6.37;49.79
41106;BME280;74159;52.530;13.188;2024-03-08T09:17:16;101761.56;;;6.21;49.32
41106;BME280;74159;52.530;13.188;2024-03-08T09:19:48;101756.97;;;6.47;49.61
41106;BME280;74159;52.530;13.188;2024-03-08T09:22:14;101768.16;;;6.70;49.59
41106;BME280;74159;52.530;13.188;2024-03-08T09:24:39;101767.38;;;6.38;48.96
41106;BME280;74159;52.530;13.188;2024-03-08T09:27:05;101758.72;;;6.34;49.45
41106;BME280;74159;52.530;13.188;2024-03-08T09:29:31;101754.19;;;6.72;49.02
41106;BME280;74159;52.530;13.188;2024-03-08T09:31:56;101749.75;;;6.96;49.24
41106;BME280;74159;52.530;13.188;2024-03-08T09:34:22;101752.75;;;6.94;49.35
41106;BME280;74159;52.530;13.188;2024-03-08T09:36:47;101746.59;;;6.74;47.21
41106;BME280;74159;52.530;13.188;2024-03-08T09:39:13;101751.53;;;6.40;47.22
41106;BME280;74159;52.530;13.188;2024-03-08T09:41:43;101751.53;;;6.65;48.79
41106;BME280;74159;52.530;13.188;2024-03-08T09:44:09;101753.69;;;6.81;46.81
41106;BME280;74159;52.530;13.188;2024-03-08T09:46:34;101749.22;;;7.05;47.36
41106;BME280;74159;52.530;13.188;2024-03-08T09:49:00;101738.03;;;7.25;47.52
41106;BME280;74159;52.530;13.188;2024-03-08T09:51:28;101740.00;;;7.36;47.29
41106;BME280;74159;52.530;13.188;2024-03-08T09:53:54;101728.84;;;7.31;47.27
41106;BME280;74159;52.530;13.188;2024-03-08T09:56:21;101727.22;;;7.05;47.00
41106;BME280;74159;52.530;13.188;2024-03-08T09:58:48;101719.88;;;7.54;46.68
41106;BME280;74159;52.530;13.188;2024-03-08T10:01:34;101721.34;;;7.38;46.16
41106;BME280;74159;52.530;13.188;2024-03-08T10:03:59;101716.34;;;7.95;46.20
41106;BME280;74159;52.530;13.188;2024-03-08T10:06:25;101718.03;;;7.96;47.29
41106;BME280;74159;52.530;13.188;2024-03-08T10:08:50;101708.78;;;7.61;45.42
41106;BME280;74159;52.530;13.188;2024-03-08T10:11:19;101715.56;;;7.28;45.59
41106;BME280;74159;52.530;13.188;2024-03-08T10:13:48;101705.53;;;7.82;46.19
41106;BME280;74159;52.530;13.188;2024-03-08T10:16:15;101708.75;;;8.21;45.27
41106;BME280;74159;52.530;13.188;2024-03-08T10:18:42;101696.31;;;7.88;45.78
41106;BME280;74159;52.530;13.188;2024-03-08T10:21:08;101698.69;;;8.14;45.67
41106;BME280;74159;52.530;13.188;2024-03-08T10:23:36;101691.97;;;8.10;43.55
41106;BME280;74159;52.530;13.188;2024-03-08T10:26:20;101696.97;;;8.43;44.48
41106;BME280;74159;52.530;13.188;2024-03-08T10:28:48;101690.16;;;8.69;45.56
41106;BME280;74159;52.530;13.188;2024-03-08T10:31:14;101688.34;;;8.52;44.56
41106;BME280;74159;52.530;13.188;2024-03-08T10:33:40;101688.81;;;8.49;45.42
41106;BME280;74159;52.530;13.188;2024-03-08T10:36:07;101685.97;;;8.90;44.75
41106;BME280;74159;52.530;13.188;2024-03-08T10:38:35;101679.84;;;8.77;42.56
41106;BME280;74159;52.530;13.188;2024-03-08T10:41:01;101670.50;;;8.78;42.67
41106;BME280;74159;52.530;13.188;2024-03-08T10:43:32;101676.84;;;8.78;42.11
41106;BME280;74159;52.530;13.188;2024-03-08T10:47:01;101669.00;;;9.50;42.69
41106;BME280;74159;52.530;13.188;2024-03-08T10:49:04;101673.00;;;8.44;42.52
41106;BME280;74159;52.530;13.188;2024-03-08T10:51:31;101670.25;;;9.71;41.76
41106;BME280;74159;52.530;13.188;2024-03-08T10:53:59;101665.75;;;9.82;40.86
41106;BME280;74159;52.530;13.188;2024-03-08T10:56:25;101666.13;;;9.17;42.20
41106;BME280;74159;52.530;13.188;2024-03-08T10:58:54;101661.66;;;9.56;42.03
41106;BME280;74159;52.530;13.188;2024-03-08T11:01:19;101662.25;;;9.29;40.75
41106;BME280;74159;52.530;13.188;2024-03-08T11:03:48;101661.72;;;8.81;41.86
41106;BME280;74159;52.530;13.188;2024-03-08T11:07:03;101652.97;;;9.35;40.48
41106;BME280;74159;52.530;13.188;2024-03-08T11:09:29;101642.53;;;10.11;39.85
41106;BME280;74159;52.530;13.188;2024-03-08T11:12:20;101640.06;;;9.81;40.71
41106;BME280;74159;52.530;13.188;2024-03-08T11:14:49;101635.75;;;9.74;40.32
41106;BME280;74159;52.530;13.188;2024-03-08T11:20:09;101625.72;;;10.46;39.61
41106;BME280;74159;52.530;13.188;2024-03-08T11:22:41;101626.69;;;10.40;38.75
41106;BME280;74159;52.530;13.188;2024-03-08T11:25:09;101627.59;;;10.79;37.67
41106;BME280;74159;52.530;13.188;2024-03-08T11:27:37;101605.81;;;11.81;36.28
41106;BME280;74159;52.530;13.188;2024-03-08T11:30:05;101607.91;;;10.98;36.43
41106;BME280;74159;52.530;13.188;2024-03-08T11:32:37;101611.72;;;11.13;37.10
41106;BME280;74159;52.530;13.188;2024-03-08T11:35:25;101600.75;;;12.04;35.96
41106;BME280;74159;52.530;13.188;2024-03-08T11:37:50;101598.69;;;11.63;36.45
41106;BME280;74159;52.530;13.188;2024-03-08T11:40:16;101590.53;;;11.51;35.88
41106;BME280;74159;52.530;13.188;2024-03-08T11:42:48;101597.44;;;12.02;35.59
41106;BME280;74159;52.530;13.188;2024-03-08T11:45:15;101578.53;;;11.94;34.71
41106;BME280;74159;52.530;13.188;2024-03-08T11:47:43;101577.53;;;12.48;34.77
41106;BME280;74159;52.530;13.188;2024-03-08T11:50:12;101575.97;;;12.67;35.58
41106;BME280;74159;52.530;13.188;2024-03-08T11:52:37;101569.06;;;13.37;34.13
41106;BME280;74159;52.530;13.188;2024-03-08T11:55:04;101575.75;;;12.31;33.75
41106;BME280;74159;52.530;13.188;2024-03-08T11:57:30;101566.09;;;12.91;32.25
41106;BME280;74159;52.530;13.188;2024-03-08T11:59:58;101568.06;;;12.44;33.37
41106;BME280;74159;52.530;13.188;2024-03-08T12:02:24;101567.19;;;12.38;33.68
41106;BME280;74159;52.530;13.188;2024-03-08T12:05:00;101572.97;;;12.26;33.87
41106;BME280;74159;52.530;13.188;2024-03-08T12:07:28;101560.72;;;13.32;32.64
41106;BME280;74159;52.530;13.188;2024-03-08T12:10:16;101567.34;;;12.21;32.86
41106;BME280;74159;52.530;13.188;2024-03-08T12:12:49;101538.56;;;13.83;32.44
41106;BME280;74159;52.530;13.188;2024-03-08T12:15:17;101541.63;;;13.97;31.24
41106;BME280;74159;52.530;13.188;2024-03-08T12:17:44;101525.47;;;15.09;30.48
41106;BME280;74159;52.530;13.188;2024-03-08T12:20:24;101534.94;;;13.93;31.12
41106;BME280;74159;52.530;13.188;2024-03-08T12:22:52;101540.59;;;13.05;32.40
41106;BME280;74159;52.530;13.188;2024-03-08T12:25:18;101525.72;;;13.41;31.37
41106;BME280;74159;52.530;13.188;2024-03-08T12:27:44;101527.44;;;13.47;31.31
41106;BME280;74159;52.530;13.188;2024-03-08T12:30:30;101522.28;;;13.09;31.89
41106;BME280;74159;52.530;13.188;2024-03-08T12:33:00;101510.47;;;13.49;33.00
41106;BME280;74159;52.530;13.188;2024-03-08T12:35:29;101517.44;;;13.67;31.00
41106;BME280;74159;52.530;13.188;2024-03-08T12:37:57;101513.22;;;14.10;31.19
41106;BME280;74159;52.530;13.188;2024-03-08T12:40:27;101513.44;;;13.17;31.48
41106;BME280;74159;52.530;13.188;2024-03-08T12:42:54;101498.47;;;14.30;30.55
41106;BME280;74159;52.530;13.188;2024-03-08T12:45:20;101503.44;;;14.43;31.03
41106;BME280;74159;52.530;13.188;2024-03-08T12:47:47;101489.53;;;14.48;29.51
41106;BME280;74159;52.530;13.188;2024-03-08T12:50:13;101485.63;;;14.44;30.36